Map

Track Data

SID SEASON NUMBER BASIN SUBBASIN NAME ISO_TIME NATURE LAT LON WMO_WIND WMO_PRES WMO_AGENCY TRACK_TYPE DIST2LAND LANDFALL IFLAG USA_AGENCY USA_ATCF_ID USA_LAT USA_LON USA_RECORD USA_STATUS USA_WIND USA_PRES USA_SSHS USA_R34_NE USA_R34_SE USA_R34_SW USA_R34_NW USA_R50_NE USA_R50_SE USA_R50_SW USA_R50_NW USA_R64_NE USA_R64_SE USA_R64_SW USA_R64_NW USA_POCI USA_ROCI USA_RMW USA_EYE TOKYO_LAT TOKYO_LON TOKYO_GRADE TOKYO_WIND TOKYO_PRES TOKYO_R50_DIR TOKYO_R50_LONG TOKYO_R50_SHORT TOKYO_R30_DIR TOKYO_R30_LONG TOKYO_R30_SHORT TOKYO_LAND CMA_LAT CMA_LON CMA_CAT CMA_WIND CMA_PRES HKO_LAT HKO_LON HKO_CAT HKO_WIND HKO_PRES NEWDELHI_LAT NEWDELHI_LON NEWDELHI_GRADE NEWDELHI_WIND NEWDELHI_PRES NEWDELHI_CI NEWDELHI_DP NEWDELHI_POCI REUNION_LAT REUNION_LON REUNION_TYPE REUNION_WIND REUNION_PRES REUNION_TNUM REUNION_CI REUNION_RMW REUNION_R34_NE REUNION_R34_SE REUNION_R34_SW REUNION_R34_NW REUNION_R50_NE REUNION_R50_SE REUNION_R50_SW REUNION_R50_NW REUNION_R64_NE REUNION_R64_SE REUNION_R64_SW REUNION_R64_NW BOM_LAT BOM_LON BOM_TYPE BOM_WIND BOM_PRES BOM_TNUM BOM_CI BOM_RMW BOM_R34_NE BOM_R34_SE BOM_R34_SW BOM_R34_NW BOM_R50_NE BOM_R50_SE BOM_R50_SW BOM_R50_NW BOM_R64_NE BOM_R64_SE BOM_R64_SW BOM_R64_NW BOM_ROCI BOM_POCI BOM_EYE BOM_POS_METHOD BOM_PRES_METHOD NADI_LAT NADI_LON NADI_CAT NADI_WIND NADI_PRES WELLINGTON_LAT WELLINGTON_LON WELLINGTON_WIND WELLINGTON_PRES DS824_LAT DS824_LON DS824_STAGE DS824_WIND DS824_PRES TD9636_LAT TD9636_LON TD9636_STAGE TD9636_WIND TD9636_PRES TD9635_LAT TD9635_LON TD9635_WIND TD9635_PRES TD9635_ROCI NEUMANN_LAT NEUMANN_LON NEUMANN_CLASS NEUMANN_WIND NEUMANN_PRES MLC_LAT MLC_LON MLC_CLASS MLC_WIND MLC_PRES USA_GUST BOM_GUST BOM_GUST_PER REUNION_GUST REUNION_GUST_PER USA_SEAHGT USA_SEARAD_NE USA_SEARAD_SE USA_SEARAD_SW USA_SEARAD_NW STORM_SPEED STORM_DIR
1894040S11057 1894 6 SI MM NOT_NAMED 1894-02-09 00:00:00 TS -10.9000 57.3000 main 839 773 _________O____ -1 -10.9000 57.3000 TC 13 262
1894040S11057 1894 6 SI MM NOT_NAMED 1894-02-09 03:00:00 TS -10.9903 56.6451 main 762 697 _________P____ -1 -10.9903 56.6451 TC 13 261
1894040S11057 1894 6 SI MM NOT_NAMED 1894-02-09 06:00:00 TS -11.1000 56.0000 main 697 631 _________O____ -1 -11.1000 56.0000 TC 13 259
1894040S11057 1894 6 SI MM NOT_NAMED 1894-02-09 09:00:00 TS -11.2423 55.3649 main 631 551 _________P____ -1 -11.2423 55.3649 TC 13 257
1894040S11057 1894 6 SI MM NOT_NAMED 1894-02-09 12:00:00 TS -11.4000 54.7000 main 551 476 _________O____ -1 -11.4000 54.7000 TC 14 258
1894040S11057 1894 6 SI MM NOT_NAMED 1894-02-09 15:00:00 TS -11.5424 53.9649 main 476 387 _________P____ -1 -11.5424 53.9649 TC 15 258
1894040S11057 1894 6 SI MM NOT_NAMED 1894-02-09 18:00:00 TS -11.7000 53.2000 main 387 308 _________O____ -1 -11.7000 53.2000 TC 15 257
1894040S11057 1894 6 SI MM NOT_NAMED 1894-02-09 21:00:00 TS -11.9000 52.4276 main 298 219 _________P____ -1 -11.9000 52.4276 TC 15 255
1894040S11057 1894 6 SI MM NOT_NAMED 1894-02-10 00:00:00 TS -12.1000 51.7000 main 219 158 _________O____ -1 -12.1000 51.7000 TC 14 255
1894040S11057 1894 6 SI MM NOT_NAMED 1894-02-10 03:00:00 TS -12.2422 51.0772 main 158 93 _________P____ -1 -12.2422 51.0772 TC 12 256
1894040S11057 1894 6 SI MM NOT_NAMED 1894-02-10 06:00:00 TS -12.4000 50.5000 main 93 31 _________O____ -1 -12.4000 50.5000 TC 12 251
1894040S11057 1894 6 SI MM NOT_NAMED 1894-02-10 09:00:00 TS -12.6350 49.8776 main 31 0 _________P____ -1 -12.6350 49.8776 TC 13 247
1894040S11057 1894 6 SI MM NOT_NAMED 1894-02-10 12:00:00 TS -12.9000 49.3000 main 0 0 _________O____ -1 -12.9000 49.3000 TC 12 243
1894040S11057 1894 6 SI MM NOT_NAMED 1894-02-10 15:00:00 TS -13.1498 48.8199 main 0 0 _________P____ -1 -13.1498 48.8199 TC 10 240
1894040S11057 1894 6 SI MM NOT_NAMED 1894-02-10 18:00:00 TS -13.4000 48.4000 main 15 0 _________O____ -1 -13.4000 48.4000 TC 10 238
1894040S11057 1894 6 SI MM NOT_NAMED 1894-02-10 21:00:00 TS -13.6499 47.9849 main 0 0 _________P____ -1 -13.6499 47.9849 TC 9 237
1894040S11057 1894 6 SI MM NOT_NAMED 1894-02-11 00:00:00 TS -13.9000 47.6000 main 32 32 _________O____ -1 -13.9000 47.6000 TC 9 235
1894040S11057 1894 6 SI MM NOT_NAMED 1894-02-11 03:00:00 TS -14.1499 47.2424 main 63 58 _________P____ -1 -14.1499 47.2424 TC 8 234
1894040S11057 1894 6 SI MM NOT_NAMED 1894-02-11 06:00:00 TS -14.4000 46.9000 main 70 69 _________O____ -1 -14.4000 46.9000 TC 8 234
1894040S11057 1894 6 SI MM NOT_NAMED 1894-02-11 09:00:00 TS -14.6425 46.5424 main 84 64 _________P____ -1 -14.6425 46.5424 TC 8 234
1894040S11057 1894 6 SI MM NOT_NAMED 1894-02-11 12:00:00 TS -14.9000 46.2000 main 70 68 _________O____ -1 -14.9000 46.2000 TC 8 229
1894040S11057 1894 6 SI MM NOT_NAMED 1894-02-11 15:00:00 TS -15.1925 45.8850 main 68 44 _________P____ -1 -15.1925 45.8850 TC 8 224
1894040S11057 1894 6 SI MM NOT_NAMED 1894-02-11 18:00:00 TS -15.5000 45.6000 main 44 30 _________O____ -1 -15.5000 45.6000 TC 8 222
1894040S11057 1894 6 SI MM NOT_NAMED 1894-02-11 21:00:00 TS -15.7624 45.3497 main 24 0 _________P____ -1 -15.7624 45.3497 TC 8 219
1894040S11057 1894 6 SI MM NOT_NAMED 1894-02-12 00:00:00 TS -16.1000 45.1000 main 0 0 _________O____ -1 -16.1000 45.1000 TC 10 213
1894040S11057 1894 6 SI MM NOT_NAMED 1894-02-12 03:00:00 TS -16.6051 44.7852 main 0 0 _________P____ -1 -16.6051 44.7852 TC 12 208
1894040S11057 1894 6 SI MM NOT_NAMED 1894-02-12 06:00:00 TS -17.2000 44.5000 main 0 0 _________O____ -1 -17.2000 44.5000 TC 13 201
1894040S11057 1894 6 SI MM NOT_NAMED 1894-02-12 09:00:00 TS -17.7999 44.3050 main 0 0 _________P____ -1 -17.7999 44.3050 TC 12 193
1894040S11057 1894 6 SI MM NOT_NAMED 1894-02-12 12:00:00 TS -18.4000 44.2000 main 0 0 _________O____ -1 -18.4000 44.2000 TC 12 187
1894040S11057 1894 6 SI MM NOT_NAMED 1894-02-12 15:00:00 TS -18.9649 44.1476 main 10 0 _________P____ -1 -18.9649 44.1476 TC 11 180
1894040S11057 1894 6 SI MM NOT_NAMED 1894-02-12 18:00:00 TS -19.5000 44.2000 main 30 10 _________O____ -1 -19.5000 44.2000 TC 11 169
1894040S11057 1894 6 SI MM NOT_NAMED 1894-02-12 21:00:00 TS -20.0150 44.3624 main 10 0 _________P____ -1 -20.0150 44.3624 TC 11 159
1894040S11057 1894 6 SI MM NOT_NAMED 1894-02-13 00:00:00 TS -20.5000 44.6000 main 0 0 _________O____ -1 -20.5000 44.6000 TC 10 155
1894040S11057 1894 6 SI MM NOT_NAMED 1894-02-13 03:00:00 TS -20.9575 44.8352 main 0 0 _________P____ -1 -20.9575 44.8352 TC 10 153
1894040S11057 1894 6 SI MM NOT_NAMED 1894-02-13 06:00:00 TS -21.4000 45.1000 main 0 0 _________O____ -1 -21.4000 45.1000 TC 10 151
1894040S11057 1894 6 SI MM NOT_NAMED 1894-02-13 09:00:00 TS -21.8649 45.3851 main 0 0 _________P____ -1 -21.8649 45.3851 TC 11 148
1894040S11057 1894 6 SI MM NOT_NAMED 1894-02-13 12:00:00 TS -22.3000 45.7000 main 0 0 _________O____ -1 -22.3000 45.7000 TC 10 143
1894040S11057 1894 6 SI MM NOT_NAMED 1894-02-13 15:00:00 TS -22.6650 46.0427 main 0 0 _________P____ -1 -22.6650 46.0427 TC 10 137
1894040S11057 1894 6 SI MM NOT_NAMED 1894-02-13 18:00:00 TS -23.0000 46.4000 main 0 0 _________O____ -1 -23.0000 46.4000 TC 9 136
1894040S11057 1894 6 SI MM NOT_NAMED 1894-02-13 21:00:00 TS -23.3451 46.7521 main 0 0 _________P____ -1 -23.3451 46.7521 TC 10 137
1894040S11057 1894 6 SI MM NOT_NAMED 1894-02-14 00:00:00 TS -23.7000 47.1000 main 0 _________O____ -1 -23.7000 47.1000 TC 10 138

About IBTrACS Database

This database is a web-friendly format of International Best Track Archive for Climate Stewardship (IBTrACS), a global best track data archive curated by NOAA dating back to 1842.

Updated: 2021-10-08